Mitchel — WDE7728 — position and weather

sailwx.info

Track history (hours):
 
Tides and Currents Weather Stations Pressure Air Temp Water Temp Dewpoint Dewpoint Depression Visibility Wind Speed Wind Dir Waves Ship Positions

Mitchel

Owner: AMERICAN TUGS INC., SAN JUAN, PR. More information available from US FCC via Universal Licensing System and Coast Guard Vessel Documentation Center.

Last reported at 2017-Aug-14 08:22 UTC. Time now 2017-Aug-16 23:45 UTC.
Position N 17°55' W 066°03'.

Length 27 m; draft 3.5 m.

Type: Tug. MMSI: 367346890.

Date/timePositionNaut miles runAvg speedWind from/ knotsBaromVisibWave heightAir tempDewpointWater temp
2017-Aug-14 08:22N 17°55' W 066°03'3 8.0
2017-Aug-14 07:58N 17°54' W 066°06'4 7.9
2017-Aug-14 07:30N 17°55' W 066°10'1 1.7
2017-Aug-14 07:00N 17°56' W 066°09'0 0.0
2017-Aug-14 06:30N 17°56' W 066°09'0 0.0
2017-Aug-14 06:00N 17°56' W 066°09'0 0.0
2017-Aug-14 05:30N 17°56' W 066°09'0 0.0
2017-Aug-14 05:00N 17°56' W 066°09'0 0.0
2017-Aug-14 04:29N 17°56' W 066°09'0 0.0
2017-Aug-14 04:00N 17°56' W 066°09'0 0.0
2017-Aug-14 03:30N 17°56' W 066°09'0 0.0
2017-Aug-14 03:00N 17°56' W 066°09'0 0.0
2017-Aug-14 02:30N 17°56' W 066°09'0 0.0
2017-Aug-14 02:00N 17°56' W 066°09'0 0.0
2017-Aug-14 01:30N 17°56' W 066°09'0 0.0
2017-Aug-14 01:00N 17°56' W 066°09'0 0.0
2017-Aug-14 00:30N 17°56' W 066°09'0 0.0
2017-Aug-14 00:00N 17°56' W 066°09'0 0.0
2017-Aug-13 23:30N 17°56' W 066°09'0 0.0
2017-Aug-13 23:00N 17°56' W 066°09'0 0.0
2017-Aug-13 22:31N 17°56' W 066°09'0 0.0
2017-Aug-13 22:00N 17°56' W 066°09'0 0.0
2017-Aug-13 21:30N 17°56' W 066°09'0 0.0
2017-Aug-13 21:00N 17°56' W 066°09'0 0.0
2017-Aug-13 20:30N 17°56' W 066°09'0 0.0
2017-Aug-13 20:00N 17°56' W 066°09'0 0.0
2017-Aug-13 19:30N 17°56' W 066°09'0 0.0
2017-Aug-13 19:00N 17°56' W 066°09'0 0.0
2017-Aug-13 18:30N 17°56' W 066°09'0 0.0
2017-Aug-13 18:00N 17°56' W 066°09'0 0.0
2017-Aug-13 17:30N 17°56' W 066°09'0 0.0
2017-Aug-13 17:00N 17°56' W 066°09'0 0.0
2017-Aug-13 16:30N 17°56' W 066°09'0 0.0
2017-Aug-13 16:00N 17°56' W 066°09'0 0.0
2017-Aug-13 15:30N 17°56' W 066°09'0 0.0
2017-Aug-13 15:00N 17°56' W 066°09'0 0.0
2017-Aug-13 14:30N 17°56' W 066°09'0 0.0
2017-Aug-13 14:00N 17°56' W 066°09'0 0.0
2017-Aug-13 13:30N 17°56' W 066°09'0 0.0
2017-Aug-13 13:00N 17°56' W 066°09'0 0.0
2017-Aug-13 12:30N 17°56' W 066°09'0 0.0
2017-Aug-13 12:00N 17°56' W 066°09'0 0.2
2017-Aug-13 11:30N 17°56' W 066°09'4 8.1
2017-Aug-13 11:00N 17°54' W 066°13'2 4.4
2017-Aug-13 10:30N 17°56' W 066°15'2 3.9
2017-Aug-13 10:00N 17°57' W 066°14'2 4.0
2017-Aug-13 09:30N 17°56' W 066°15'2 4.3
2017-Aug-13 09:00N 17°54' W 066°13'4 7.5
2017-Aug-13 08:30N 17°56' W 066°10'1 1.0
2017-Aug-13 08:00N 17°56' W 066°09'0 0.0
2017-Aug-13 07:29N 17°56' W 066°09'0 0.0
2017-Aug-13 07:00N 17°56' W 066°09'0 0.0
2017-Aug-13 06:30N 17°56' W 066°09'0 0.0
2017-Aug-13 05:59N 17°56' W 066°09'0 0.0
2017-Aug-13 05:29N 17°56' W 066°09'0 0.0
2017-Aug-13 05:00N 17°56' W 066°09'0 0.0
2017-Aug-13 04:30N 17°56' W 066°09'0 0.0
2017-Aug-13 04:00N 17°56' W 066°09'0 0.0
2017-Aug-13 03:29N 17°56' W 066°09'0 0.0
2017-Aug-13 03:00N 17°56' W 066°09'0 0.0
2017-Aug-13 02:30N 17°56' W 066°09'0 0.0
2017-Aug-13 02:00N 17°56' W 066°09'0 0.0
2017-Aug-13 01:30N 17°56' W 066°09'0 0.0
2017-Aug-13 01:00N 17°56' W 066°09'0 0.0
2017-Aug-13 00:30N 17°56' W 066°09'0 0.0
2017-Aug-13 00:00N 17°56' W 066°09'0 0.0
2017-Aug-12 23:30N 17°56' W 066°09'0 0.0
2017-Aug-12 22:59N 17°56' W 066°09'0 0.4
2017-Aug-12 22:30N 17°56' W 066°09'4 7.7
2017-Aug-12 22:00N 17°55' W 066°13'2 4.4
2017-Aug-12 21:30N 17°56' W 066°15'2 4.0
2017-Aug-12 21:01N 17°57' W 066°14'0 0.0
2017-Aug-12 20:31N 17°57' W 066°14'0 0.1
2017-Aug-12 20:00N 17°57' W 066°14'1 1.5
2017-Aug-12 19:30N 17°56' W 066°14'2 4.2
2017-Aug-12 19:00N 17°55' W 066°15'4 8.2
2017-Aug-12 18:31N 17°55' W 066°11'1 2.5
2017-Aug-12 18:00N 17°55' W 066°10'4 8.4
2017-Aug-12 17:30N 17°55' W 066°05'4 8.9
2017-Aug-12 17:00N 17°56' W 066°01'4 0.5
2017-Aug-12 09:38N 17°55' W 066°04'1 8.5
2017-Aug-12 09:29N 17°54' W 066°06'4 7.9
2017-Aug-12 09:00N 17°55' W 066°10'1 0.3
2017-Aug-12 05:43N 17°56' W 066°09'0 0.0
2017-Aug-12 05:29N 17°56' W 066°09'0 0.0
2017-Aug-12 05:00N 17°56' W 066°09'0 0.0
2017-Aug-12 03:57N 17°56' W 066°09'0 0.0
2017-Aug-12 03:30N 17°56' W 066°09'0 0.0
2017-Aug-12 03:00N 17°56' W 066°09'0 0.0
2017-Aug-12 02:29N 17°56' W 066°09'0 0.0
2017-Aug-12 02:00N 17°56' W 066°09'0 0.0
2017-Aug-12 01:23N 17°56' W 066°09'0 0.0
2017-Aug-12 01:00N 17°56' W 066°09'0 0.0
2017-Aug-12 00:30N 17°56' W 066°09'0 0.0
2017-Aug-12 00:00N 17°56' W 066°09'0 0.0
2017-Aug-11 23:30N 17°56' W 066°09'0 0.2
2017-Aug-11 22:59N 17°56' W 066°09'1 1.7
2017-Aug-11 22:28N 17°55' W 066°10'1 1.6
2017-Aug-11 22:00N 17°56' W 066°10'0 0.3
2017-Aug-11 21:30N 17°56' W 066°09'0 0.0
2017-Aug-11 21:00N 17°56' W 066°09'0 0.0
2017-Aug-11 20:30N 17°56' W 066°09'0 0.0
2017-Aug-11 20:00N 17°56' W 066°09'0 0.0
2017-Aug-11 19:30N 17°56' W 066°09'0 0.0
2017-Aug-11 19:00N 17°56' W 066°09'0 0.0
2017-Aug-11 18:30N 17°56' W 066°09'0 0.0
2017-Aug-11 18:00N 17°56' W 066°09'0 0.3
2017-Aug-11 17:30N 17°56' W 066°09'0 0.0
2017-Aug-11 17:00N 17°56' W 066°09'0 0.0
2017-Aug-11 16:30N 17°56' W 066°09'0 0.0
2017-Aug-11 16:00N 17°56' W 066°09'0 0.0
2017-Aug-11 15:29N 17°56' W 066°09'0 0.0
2017-Aug-11 15:00N 17°56' W 066°09'0 0.0
2017-Aug-11 14:01N 17°56' W 066°09'0 0.0
2017-Aug-11 13:30N 17°56' W 066°09'0 0.0
2017-Aug-11 13:00N 17°56' W 066°09'0 0.0
2017-Aug-11 12:30N 17°56' W 066°09'0 0.0
2017-Aug-11 12:00N 17°56' W 066°09'0 0.0
2017-Aug-11 11:30N 17°56' W 066°09'0 0.0
2017-Aug-11 11:00N 17°56' W 066°09'0 0.0
2017-Aug-11 10:11N 17°56' W 066°09'0 0.0
2017-Aug-11 08:37N 17°56' W 066°09'0 0.0
2017-Aug-11 08:28N 17°56' W 066°09'0 0.0
2017-Aug-11 07:50N 17°56' W 066°09'0 0.0
2017-Aug-11 07:30N 17°56' W 066°09'0 0.0
2017-Aug-11 06:48N 17°56' W 066°09'0 0.0
2017-Aug-11 06:30N 17°56' W 066°09'0 0.0
2017-Aug-11 05:34N 17°56' W 066°09'0 0.0
2017-Aug-11 05:29N 17°56' W 066°09'0 0.0
2017-Aug-11 05:00N 17°56' W 066°09'0 0.0
2017-Aug-11 04:30N 17°56' W 066°09'0 0.0
2017-Aug-11 03:51N 17°56' W 066°09'0 0.0
2017-Aug-11 03:29N 17°56' W 066°09'0 0.0
2017-Aug-11 03:00N 17°56' W 066°09'0 0.0
2017-Aug-11 02:30N 17°56' W 066°09'0 0.0
2017-Aug-11 02:00N 17°56' W 066°09'0 0.0
2017-Aug-11 01:30N 17°56' W 066°09'0 0.0
2017-Aug-11 01:00N 17°56' W 066°09'0 0.0
2017-Aug-11 00:29N 17°56' W 066°09'0 0.0
2017-Aug-11 00:01N 17°56' W 066°09'0 0.0
2017-Aug-10 23:30N 17°56' W 066°09'0 0.0
2017-Aug-10 23:00N 17°56' W 066°09'0 0.0
2017-Aug-10 22:20N 17°56' W 066°09'0 0.0
2017-Aug-10 21:58N 17°56' W 066°09'0 0.0
2017-Aug-10 21:30N 17°56' W 066°09'0 0.0
2017-Aug-10 21:00N 17°56' W 066°09'0 0.0
2017-Aug-10 20:30N 17°56' W 066°09'0 0.0
2017-Aug-10 20:00N 17°56' W 066°09'0 0.0
2017-Aug-10 19:30N 17°56' W 066°09'0 0.0
2017-Aug-10 19:00N 17°56' W 066°09'0 0.0
2017-Aug-10 18:30N 17°56' W 066°09'0 0.0
2017-Aug-10 18:00N 17°56' W 066°09'0 0.0
2017-Aug-10 17:30N 17°56' W 066°09'0 0.0
2017-Aug-10 17:00N 17°56' W 066°09'0 0.0
2017-Aug-10 16:30N 17°56' W 066°09'0 0.0
2017-Aug-10 16:00N 17°56' W 066°09'0 0.0
2017-Aug-10 15:30N 17°56' W 066°09'0 0.0
2017-Aug-10 15:00N 17°56' W 066°09'0 0.0
2017-Aug-10 14:31N 17°56' W 066°09'0 0.0
2017-Aug-10 14:00N 17°56' W 066°09'0 0.0
2017-Aug-10 13:30N 17°56' W 066°09'0 0.0
2017-Aug-10 13:00N 17°56' W 066°09'0 0.0
2017-Aug-10 12:29N 17°56' W 066°09'0 0.0
2017-Aug-10 12:00N 17°56' W 066°09'0 0.0
2017-Aug-10 11:31N 17°56' W 066°09'0 0.0
2017-Aug-10 11:00N 17°56' W 066°09'0 0.0
2017-Aug-10 10:30N 17°56' W 066°09'0 0.0
2017-Aug-10 09:59N 17°56' W 066°09'0 0.0
2017-Aug-10 09:30N 17°56' W 066°09'0 0.0
2017-Aug-10 09:00N 17°56' W 066°09'0 0.0
2017-Aug-10 08:29N 17°56' W 066°09'0 0.0
2017-Aug-10 08:00N 17°56' W 066°09'0 0.0
2017-Aug-10 07:30N 17°56' W 066°09'0 0.0
2017-Aug-10 07:00N 17°56' W 066°09'0 0.0
2017-Aug-10 06:30N 17°56' W 066°09'0 0.0
2017-Aug-10 06:00N 17°56' W 066°09'0 0.0
2017-Aug-10 05:30N 17°56' W 066°09'0 0.0
2017-Aug-10 05:00N 17°56' W 066°09'0 0.0
2017-Aug-10 04:30N 17°56' W 066°09'0 0.0
2017-Aug-10 04:00N 17°56' W 066°09'0 0.0
2017-Aug-10 03:31N 17°56' W 066°09'0 0.0
2017-Aug-10 03:00N 17°56' W 066°09'0 0.0
2017-Aug-10 02:30N 17°56' W 066°09'0 0.0
2017-Aug-10 02:00N 17°56' W 066°09'0 0.0
2017-Aug-10 01:30N 17°56' W 066°09'0 0.0
2017-Aug-10 01:00N 17°56' W 066°09'0 0.0
2017-Aug-10 00:30N 17°56' W 066°09'0 0.0
2017-Aug-10 00:00N 17°56' W 066°09'0 0.0
2017-Aug-09 23:30N 17°56' W 066°09'0 0.0
2017-Aug-09 23:00N 17°56' W 066°09'0 0.0
2017-Aug-09 22:30N 17°56' W 066°09'0 0.0
2017-Aug-09 22:00N 17°56' W 066°09'0 0.0
2017-Aug-09 21:30N 17°56' W 066°09'0 0.0
2017-Aug-09 21:00N 17°56' W 066°09'0 0.0
2017-Aug-09 20:30N 17°56' W 066°09'0 0.0
2017-Aug-09 20:00N 17°56' W 066°09'0 0.0
2017-Aug-09 19:30N 17°56' W 066°09'0 0.0
2017-Aug-09 18:59N 17°56' W 066°09'0 0.0
2017-Aug-09 18:30N 17°56' W 066°09'0 0.0
2017-Aug-09 18:00N 17°56' W 066°09'0 0.0
2017-Aug-09 17:30N 17°56' W 066°09'0 0.0
2017-Aug-09 17:00N 17°56' W 066°09'0 0.0
2017-Aug-09 16:30N 17°56' W 066°09'0 0.0
2017-Aug-09 16:00N 17°56' W 066°09'0 0.0
2017-Aug-09 15:30N 17°56' W 066°09'0 0.0
2017-Aug-09 15:00N 17°56' W 066°09'0 0.0
2017-Aug-09 14:30N 17°56' W 066°09'0 0.0
2017-Aug-09 14:00N 17°56' W 066°09'0 0.0
2017-Aug-09 13:30N 17°56' W 066°09'0 0.0
2017-Aug-09 12:59N 17°56' W 066°09'0 0.0
2017-Aug-09 12:30N 17°56' W 066°09'0 0.0
2017-Aug-09 12:00N 17°56' W 066°09'0 0.0
2017-Aug-09 11:30N 17°56' W 066°09'0 0.0
2017-Aug-09 11:00N 17°56' W 066°09'0 0.0
2017-Aug-09 10:30N 17°56' W 066°09'0 0.0
2017-Aug-09 10:00N 17°56' W 066°09'0 0.0
2017-Aug-09 09:30N 17°56' W 066°09'0 0.0
2017-Aug-09 09:00N 17°56' W 066°09'0 0.0
2017-Aug-09 08:30N 17°56' W 066°09'0 0.0
2017-Aug-09 08:00N 17°56' W 066°09'0 0.0
2017-Aug-09 07:30N 17°56' W 066°09'0 0.0
2017-Aug-09 07:00N 17°56' W 066°09'0 0.0
2017-Aug-09 06:30N 17°56' W 066°09'0 0.0
2017-Aug-09 06:00N 17°56' W 066°09'0 0.0
2017-Aug-09 05:30N 17°56' W 066°09'0 0.0
2017-Aug-09 05:00N 17°56' W 066°09'0 0.0
2017-Aug-09 04:31N 17°56' W 066°09'0 0.0
2017-Aug-09 04:00N 17°56' W 066°09'0 0.0
2017-Aug-09 03:30N 17°56' W 066°09'0 0.0
2017-Aug-09 03:00N 17°56' W 066°09'0 0.0
2017-Aug-09 02:30N 17°56' W 066°09'0 0.0
2017-Aug-09 02:00N 17°56' W 066°09'0 0.0
2017-Aug-09 01:30N 17°56' W 066°09'0 0.0
2017-Aug-09 01:01N 17°56' W 066°09'0 0.0
2017-Aug-09 00:30N 17°56' W 066°09'0 0.0
2017-Aug-09 00:00N 17°56' W 066°09'0 0.0
2017-Aug-08 23:30N 17°56' W 066°09'0 0.0
2017-Aug-08 23:00N 17°56' W 066°09'0 0.0
2017-Aug-08 22:30N 17°56' W 066°09'0 0.0
2017-Aug-08 22:00N 17°56' W 066°09'0 0.0
2017-Aug-08 21:30N 17°56' W 066°09'0 0.0
2017-Aug-08 21:00N 17°56' W 066°09'0 0.0
2017-Aug-08 20:30N 17°56' W 066°09'0 0.0
2017-Aug-08 20:00N 17°56' W 066°09'0 0.0
2017-Aug-08 19:30N 17°56' W 066°09'0 0.0
2017-Aug-08 19:00N 17°56' W 066°09'0 0.0
2017-Aug-08 18:28N 17°56' W 066°09'0 0.0
2017-Aug-08 18:00N 17°56' W 066°09'0 0.0
2017-Aug-08 17:29N 17°56' W 066°09'0 0.0
2017-Aug-08 17:00N 17°56' W 066°09'0 0.0
2017-Aug-08 16:30N 17°56' W 066°09'0 0.0
2017-Aug-08 16:00N 17°56' W 066°09'0 0.0
2017-Aug-08 15:28N 17°56' W 066°09'0 0.0
2017-Aug-08 15:00N 17°56' W 066°09'0 0.0
2017-Aug-08 14:29N 17°56' W 066°09'0 0.0
2017-Aug-08 14:00N 17°56' W 066°09'0 0.0
2017-Aug-08 13:30N 17°56' W 066°09'0 0.0
2017-Aug-08 13:00N 17°56' W 066°09'0 0.0
2017-Aug-08 12:28N 17°56' W 066°09'0 0.0
2017-Aug-08 11:59N 17°56' W 066°09'0 0.0
2017-Aug-08 11:28N 17°56' W 066°09'0 0.0
2017-Aug-08 11:00N 17°56' W 066°09'0 0.0
2017-Aug-08 10:30N 17°56' W 066°09'0 0.0
2017-Aug-08 09:59N 17°56' W 066°09'0 0.0
2017-Aug-08 09:30N 17°56' W 066°09'0 0.0
2017-Aug-08 09:00N 17°56' W 066°09'0 0.0
2017-Aug-08 08:30N 17°56' W 066°09'0 0.0
2017-Aug-08 08:00N 17°56' W 066°09'0 0.0
2017-Aug-08 07:30N 17°56' W 066°09'0 0.0
2017-Aug-08 07:00N 17°56' W 066°09'0 0.0
2017-Aug-08 06:31N 17°56' W 066°09'0 0.0
2017-Aug-08 06:00N 17°56' W 066°09'0 0.0
2017-Aug-08 05:29N 17°56' W 066°09'0 0.0
2017-Aug-08 05:00N 17°56' W 066°09'0 0.0
2017-Aug-08 04:30N 17°56' W 066°09'0 0.0
2017-Aug-08 04:00N 17°56' W 066°09'0 0.0
2017-Aug-08 03:29N 17°56' W 066°09'0 0.0
2017-Aug-08 03:00N 17°56' W 066°09'0 0.0
2017-Aug-08 02:30N 17°56' W 066°09'0 0.0
2017-Aug-08 02:00N 17°56' W 066°09'0 0.0
2017-Aug-08 01:30N 17°56' W 066°09'0 0.0
2017-Aug-08 01:00N 17°56' W 066°09'0 0.0
2017-Aug-08 00:30N 17°56' W 066°09'0 0.0
2017-Aug-08 00:00N 17°56' W 066°09'0 0.0
2017-Aug-07 23:30N 17°56' W 066°09'0 0.0
2017-Aug-07 23:00N 17°56' W 066°09'0 0.0
2017-Aug-07 22:30N 17°56' W 066°09'0 0.0
2017-Aug-07 22:00N 17°56' W 066°09'0 0.0
2017-Aug-07 21:30N 17°56' W 066°09'0 0.0
2017-Aug-07 21:00N 17°56' W 066°09'0 0.0
2017-Aug-07 20:30N 17°56' W 066°09'0 0.0
2017-Aug-07 20:00N 17°56' W 066°09'0 0.0
2017-Aug-07 19:30N 17°56' W 066°09'0 0.0
2017-Aug-07 19:00N 17°56' W 066°09'0 0.0
2017-Aug-07 18:30N 17°56' W 066°09'0 0.0
2017-Aug-07 18:00N 17°56' W 066°09'0 0.0
2017-Aug-07 17:31N 17°56' W 066°09'0 0.0
2017-Aug-07 17:01N 17°56' W 066°09'0 0.0
2017-Aug-07 16:30N 17°56' W 066°09'0 0.0
2017-Aug-07 16:00N 17°56' W 066°09'0 0.0
2017-Aug-07 15:31N 17°56' W 066°09'0 0.0
2017-Aug-07 15:00N 17°56' W 066°09'0 0.0
2017-Aug-07 14:30N 17°56' W 066°09'0 0.0
2017-Aug-07 14:00N 17°56' W 066°09'0 0.0
2017-Aug-07 13:30N 17°56' W 066°09'0 0.0
2017-Aug-07 13:00N 17°56' W 066°09'0 0.0
2017-Aug-07 12:30N 17°56' W 066°09'0 0.0
2017-Aug-07 12:00N 17°56' W 066°09'0 0.0
2017-Aug-07 11:30N 17°56' W 066°09'0 0.0
2017-Aug-07 11:00N 17°56' W 066°09'0 0.0
2017-Aug-07 10:30N 17°56' W 066°09'0 0.0
2017-Aug-07 10:00N 17°56' W 066°09'0 0.0
2017-Aug-07 09:30N 17°56' W 066°09'0 0.0
2017-Aug-07 09:00N 17°56' W 066°09'0 0.0
2017-Aug-07 08:30N 17°56' W 066°09'0 0.0
2017-Aug-07 08:01N 17°56' W 066°09'0 0.0
2017-Aug-07 07:30N 17°56' W 066°09'0 0.0
2017-Aug-07 07:00N 17°56' W 066°09'0 0.0
2017-Aug-07 06:30N 17°56' W 066°09'0 0.0
2017-Aug-07 06:00N 17°56' W 066°09'0 0.0
2017-Aug-07 05:30N 17°56' W 066°09'0 0.0
2017-Aug-07 05:00N 17°56' W 066°09'0 0.0
2017-Aug-07 04:30N 17°56' W 066°09'0 0.0
2017-Aug-07 04:00N 17°56' W 066°09'0 0.0
2017-Aug-07 03:30N 17°56' W 066°09'0 0.0
2017-Aug-07 03:00N 17°56' W 066°09'0 0.0
2017-Aug-07 02:30N 17°56' W 066°09'0 0.0
2017-Aug-07 02:00N 17°56' W 066°09'0 0.0
2017-Aug-07 01:30N 17°56' W 066°09'0 0.0
2017-Aug-07 01:00N 17°56' W 066°09'0 0.0
2017-Aug-07 00:30N 17°56' W 066°09'0 0.0
2017-Aug-07 00:00N 17°56' W 066°09'0 0.0
2017-Aug-06 23:30N 17°56' W 066°09'0 0.0
2017-Aug-06 23:00N 17°56' W 066°09'0 0.0
2017-Aug-06 22:30N 17°56' W 066°09'0 0.0
2017-Aug-06 22:00N 17°56' W 066°09'0 0.0
2017-Aug-06 21:30N 17°56' W 066°09'0 0.0
2017-Aug-06 21:01N 17°56' W 066°09'0 0.0
2017-Aug-06 20:31N 17°56' W 066°09'0 0.0
2017-Aug-06 20:00N 17°56' W 066°09'0 0.0
2017-Aug-06 19:30N 17°56' W 066°09'0 0.0
2017-Aug-06 19:00N 17°56' W 066°09'0 0.0
2017-Aug-06 18:31N 17°56' W 066°09'0 0.0
2017-Aug-06 18:00N 17°56' W 066°09'0 0.0
2017-Aug-06 17:30N 17°56' W 066°09'0 0.0
2017-Aug-06 17:00N 17°56' W 066°09'0 0.0
2017-Aug-06 16:30N 17°56' W 066°09'0 0.0
2017-Aug-06 16:00N 17°56' W 066°09'0 0.0
2017-Aug-06 15:30N 17°56' W 066°09'0 0.0
2017-Aug-06 15:00N 17°56' W 066°09'0 0.0
2017-Aug-06 14:30N 17°56' W 066°09'0 0.0
2017-Aug-06 14:01N 17°56' W 066°09'0 0.0
2017-Aug-06 13:30N 17°56' W 066°09'0 0.0
2017-Aug-06 13:00N 17°56' W 066°09'0 0.0
2017-Aug-06 12:31N 17°56' W 066°09'0 0.0
2017-Aug-06 12:00N 17°56' W 066°09'0 0.0
2017-Aug-06 11:30N 17°56' W 066°09'0 0.0
2017-Aug-06 11:00N 17°56' W 066°09'0 0.0
2017-Aug-06 10:31N 17°56' W 066°09'0 0.0
2017-Aug-06 10:00N 17°56' W 066°09'0 0.0
2017-Aug-06 09:30N 17°56' W 066°09'0 0.0
2017-Aug-06 09:00N 17°56' W 066°09'0 0.0
2017-Aug-06 08:30N 17°56' W 066°09'0 0.0
2017-Aug-06 08:00N 17°56' W 066°09'0 0.0
2017-Aug-06 07:30N 17°56' W 066°09'0 0.0
2017-Aug-06 07:00N 17°56' W 066°09'0 0.0
2017-Aug-06 06:30N 17°56' W 066°09'0 0.0
2017-Aug-06 06:01N 17°56' W 066°09'0 0.0
2017-Aug-06 05:30N 17°56' W 066°09'0 0.0
2017-Aug-06 05:00N 17°56' W 066°09'0 0.0
2017-Aug-06 04:30N 17°56' W 066°09'0 0.0
2017-Aug-06 04:00N 17°56' W 066°09'0 0.0
2017-Aug-06 03:30N 17°56' W 066°09'0 0.0
2017-Aug-06 03:00N 17°56' W 066°09'0 0.0
2017-Aug-06 02:30N 17°56' W 066°09'0 0.0
2017-Aug-06 02:00N 17°56' W 066°09'0 0.0
2017-Aug-06 01:30N 17°56' W 066°09'0 0.0
2017-Aug-06 01:00N 17°56' W 066°09'0 0.0
2017-Aug-06 00:30N 17°56' W 066°09'0 0.0
2017-Aug-06 00:00N 17°56' W 066°09'0 0.0
2017-Aug-05 23:30N 17°56' W 066°09'0 0.0
2017-Aug-05 23:00N 17°56' W 066°09'0 0.0
2017-Aug-05 22:30N 17°56' W 066°09'0 0.0
2017-Aug-05 21:59N 17°56' W 066°09'0 0.0
2017-Aug-05 21:30N 17°56' W 066°09'0 0.0
2017-Aug-05 21:00N 17°56' W 066°09'0 0.0
2017-Aug-05 20:31N 17°56' W 066°09'0 0.0
2017-Aug-05 20:00N 17°56' W 066°09'0 0.0
2017-Aug-05 19:30N 17°56' W 066°09'0 0.0
2017-Aug-05 19:00N 17°56' W 066°09'0 0.0
2017-Aug-05 18:30N 17°56' W 066°09'0 0.0
2017-Aug-05 18:00N 17°56' W 066°09'0 0.0
2017-Aug-05 17:30N 17°56' W 066°09'0 0.0
2017-Aug-05 17:00N 17°56' W 066°09'0 0.0
2017-Aug-05 16:30N 17°56' W 066°09'0 0.0
2017-Aug-05 16:00N 17°56' W 066°09'0 0.0
2017-Aug-05 15:30N 17°56' W 066°09'0 0.0
2017-Aug-05 15:00N 17°56' W 066°09'0 0.0
2017-Aug-05 14:30N 17°56' W 066°09'0 0.0
2017-Aug-05 14:00N 17°56' W 066°09'0 0.0
2017-Aug-05 13:30N 17°56' W 066°09'0 0.0
2017-Aug-05 13:00N 17°56' W 066°09'0 0.0
2017-Aug-05 12:30N 17°56' W 066°09'0 0.0
2017-Aug-05 12:00N 17°56' W 066°09'0 0.0
2017-Aug-05 11:30N 17°56' W 066°09'0 0.0
2017-Aug-05 11:00N 17°56' W 066°09'0 0.0
2017-Aug-05 10:30N 17°56' W 066°09'0 0.0
2017-Aug-05 10:00N 17°56' W 066°09'0 0.0
2017-Aug-05 09:30N 17°56' W 066°09'0 0.0
2017-Aug-05 09:00N 17°56' W 066°09'0 0.0
2017-Aug-05 08:31N 17°56' W 066°09'0 0.0
2017-Aug-05 08:00N 17°56' W 066°09'0 0.0
2017-Aug-05 07:30N 17°56' W 066°09'0 0.0
2017-Aug-05 07:00N 17°56' W 066°09'0 0.0
2017-Aug-05 06:30N 17°56' W 066°09'0 0.0
2017-Aug-05 06:00N 17°56' W 066°09'0 0.0
2017-Aug-05 05:30N 17°56' W 066°09'0 0.0
2017-Aug-05 05:00N 17°56' W 066°09'0 0.0
2017-Aug-05 04:30N 17°56' W 066°09'0 0.0
2017-Aug-05 04:00N 17°56' W 066°09'0 0.0
2017-Aug-05 03:30N 17°56' W 066°09'0 0.0
2017-Aug-05 03:00N 17°56' W 066°09'0 0.0
2017-Aug-05 02:30N 17°56' W 066°09'0 0.0
2017-Aug-05 02:00N 17°56' W 066°09'0 0.0
2017-Aug-05 01:29N 17°56' W 066°09'0 0.0
2017-Aug-05 01:00N 17°56' W 066°09'0 0.0
2017-Aug-05 00:30N 17°56' W 066°09'0 0.0
2017-Aug-05 00:00N 17°56' W 066°09'0 0.0
2017-Aug-04 23:30N 17°56' W 066°09'0 0.0
2017-Aug-04 23:00N 17°56' W 066°09'0 0.0
2017-Aug-04 22:30N 17°56' W 066°09'0 0.0
2017-Aug-04 22:00N 17°56' W 066°09'0 0.3
2017-Aug-04 21:30N 17°56' W 066°09'0 0.0
2017-Aug-04 21:01N 17°56' W 066°09'0 0.0
2017-Aug-04 20:30N 17°56' W 066°09'0 0.3
2017-Aug-04 20:00N 17°56' W 066°09'0 0.0
2017-Aug-04 19:30N 17°56' W 066°09'0 0.0
2017-Aug-04 19:00N 17°56' W 066°09'0 0.0
2017-Aug-04 18:30N 17°56' W 066°09'0 0.0
2017-Aug-04 18:00N 17°56' W 066°09'0 0.0
2017-Aug-04 17:30N 17°56' W 066°09'0 0.0
2017-Aug-04 17:00N 17°56' W 066°09'0 0.0
2017-Aug-04 16:30N 17°56' W 066°09'0 0.0
2017-Aug-04 15:59N 17°56' W 066°09'0 0.0
2017-Aug-04 15:24N 17°56' W 066°09'0 0.0
2017-Aug-04 15:00N 17°56' W 066°09'0 0.0
2017-Aug-04 13:58N 17°56' W 066°09'0 0.0
2017-Aug-04 13:30N 17°56' W 066°09'0 0.0
2017-Aug-04 12:58N 17°56' W 066°09'0 0.0
2017-Aug-04 12:30N 17°56' W 066°09'0 0.0
2017-Aug-04 12:00N 17°56' W 066°09'0 0.0
2017-Aug-04 11:29N 17°56' W 066°09'0 0.0
2017-Aug-04 11:00N 17°56' W 066°09'0 0.0
2017-Aug-04 10:30N 17°56' W 066°09'0 0.0
2017-Aug-04 10:00N 17°56' W 066°09'0 0.0
2017-Aug-04 09:31N 17°56' W 066°09'0 0.0
2017-Aug-04 09:00N 17°56' W 066°09'0 0.0
2017-Aug-04 08:30N 17°56' W 066°09'  
Track history (hours):
 
Tides and Currents Weather Stations Pressure Air Temp Water Temp Dewpoint Dewpoint Depression Visibility Wind Speed Wind Dir Waves Ship Positions

Mitchel

Owner: AMERICAN TUGS INC., SAN JUAN, PR. More information available from US FCC via Universal Licensing System and Coast Guard Vessel Documentation Center.

Last reported at 2017-Aug-14 08:22 UTC. Time now 2017-Aug-16 23:45 UTC.
Position N 17°55' W 066°03'.

Length 27 m; draft 3.5 m.

Type: Tug. MMSI: 367346890.

Date/timePositionNaut miles runAvg speedWind from/ knotsBaromVisibWave heightAir tempDewpointWater temp
2017-Aug-14 08:22N 17°55' W 066°03'3 8.0
2017-Aug-14 07:58N 17°54' W 066°06'4 7.9
2017-Aug-14 07:30N 17°55' W 066°10'1 1.7
2017-Aug-14 07:00N 17°56' W 066°09'0 0.0
2017-Aug-14 06:30N 17°56' W 066°09'0 0.0
2017-Aug-14 06:00N 17°56' W 066°09'0 0.0
2017-Aug-14 05:30N 17°56' W 066°09'0 0.0
2017-Aug-14 05:00N 17°56' W 066°09'0 0.0
2017-Aug-14 04:29N 17°56' W 066°09'0 0.0
2017-Aug-14 04:00N 17°56' W 066°09'0 0.0
2017-Aug-14 03:30N 17°56' W 066°09'0 0.0
2017-Aug-14 03:00N 17°56' W 066°09'0 0.0
2017-Aug-14 02:30N 17°56' W 066°09'0 0.0
2017-Aug-14 02:00N 17°56' W 066°09'0 0.0
2017-Aug-14 01:30N 17°56' W 066°09'0 0.0
2017-Aug-14 01:00N 17°56' W 066°09'0 0.0
2017-Aug-14 00:30N 17°56' W 066°09'0 0.0
2017-Aug-14 00:00N 17°56' W 066°09'0 0.0
2017-Aug-13 23:30N 17°56' W 066°09'0 0.0
2017-Aug-13 23:00N 17°56' W 066°09'0 0.0
2017-Aug-13 22:31N 17°56' W 066°09'0 0.0
2017-Aug-13 22:00N 17°56' W 066°09'0 0.0
2017-Aug-13 21:30N 17°56' W 066°09'0 0.0
2017-Aug-13 21:00N 17°56' W 066°09'0 0.0
2017-Aug-13 20:30N 17°56' W 066°09'0 0.0
2017-Aug-13 20:00N 17°56' W 066°09'0 0.0
2017-Aug-13 19:30N 17°56' W 066°09'0 0.0
2017-Aug-13 19:00N 17°56' W 066°09'0 0.0
2017-Aug-13 18:30N 17°56' W 066°09'0 0.0
2017-Aug-13 18:00N 17°56' W 066°09'0 0.0
2017-Aug-13 17:30N 17°56' W 066°09'0 0.0
2017-Aug-13 17:00N 17°56' W 066°09'0 0.0
2017-Aug-13 16:30N 17°56' W 066°09'0 0.0
2017-Aug-13 16:00N 17°56' W 066°09'0 0.0
2017-Aug-13 15:30N 17°56' W 066°09'0 0.0
2017-Aug-13 15:00N 17°56' W 066°09'0 0.0
2017-Aug-13 14:30N 17°56' W 066°09'0 0.0
2017-Aug-13 14:00N 17°56' W 066°09'0 0.0
2017-Aug-13 13:30N 17°56' W 066°09'0 0.0
2017-Aug-13 13:00N 17°56' W 066°09'0 0.0
2017-Aug-13 12:30N 17°56' W 066°09'0 0.0
2017-Aug-13 12:00N 17°56' W 066°09'0 0.2
2017-Aug-13 11:30N 17°56' W 066°09'4 8.1
2017-Aug-13 11:00N 17°54' W 066°13'2 4.4
2017-Aug-13 10:30N 17°56' W 066°15'2 3.9
2017-Aug-13 10:00N 17°57' W 066°14'2 4.0
2017-Aug-13 09:30N 17°56' W 066°15'2 4.3
2017-Aug-13 09:00N 17°54' W 066°13'4 7.5
2017-Aug-13 08:30N 17°56' W 066°10'1 1.0
2017-Aug-13 08:00N 17°56' W 066°09'0 0.0
2017-Aug-13 07:29N 17°56' W 066°09'0 0.0
2017-Aug-13 07:00N 17°56' W 066°09'0 0.0
2017-Aug-13 06:30N 17°56' W 066°09'0 0.0
2017-Aug-13 05:59N 17°56' W 066°09'0 0.0
2017-Aug-13 05:29N 17°56' W 066°09'0 0.0
2017-Aug-13 05:00N 17°56' W 066°09'0 0.0
2017-Aug-13 04:30N 17°56' W 066°09'0 0.0
2017-Aug-13 04:00N 17°56' W 066°09'0 0.0
2017-Aug-13 03:29N 17°56' W 066°09'0 0.0
2017-Aug-13 03:00N 17°56' W 066°09'0 0.0
2017-Aug-13 02:30N 17°56' W 066°09'0 0.0
2017-Aug-13 02:00N 17°56' W 066°09'0 0.0
2017-Aug-13 01:30N 17°56' W 066°09'0 0.0
2017-Aug-13 01:00N 17°56' W 066°09'0 0.0
2017-Aug-13 00:30N 17°56' W 066°09'0 0.0
2017-Aug-13 00:00N 17°56' W 066°09'0 0.0
2017-Aug-12 23:30N 17°56' W 066°09'0 0.0
2017-Aug-12 22:59N 17°56' W 066°09'0 0.4
2017-Aug-12 22:30N 17°56' W 066°09'4 7.7
2017-Aug-12 22:00N 17°55' W 066°13'2 4.4
2017-Aug-12 21:30N 17°56' W 066°15'2 4.0
2017-Aug-12 21:01N 17°57' W 066°14'0 0.0
2017-Aug-12 20:31N 17°57' W 066°14'0 0.1
2017-Aug-12 20:00N 17°57' W 066°14'1 1.5
2017-Aug-12 19:30N 17°56' W 066°14'2 4.2
2017-Aug-12 19:00N 17°55' W 066°15'4 8.2
2017-Aug-12 18:31N 17°55' W 066°11'1 2.5
2017-Aug-12 18:00N 17°55' W 066°10'4 8.4
2017-Aug-12 17:30N 17°55' W 066°05'4 8.9
2017-Aug-12 17:00N 17°56' W 066°01'4 0.5
2017-Aug-12 09:38N 17°55' W 066°04'1 8.5
2017-Aug-12 09:29N 17°54' W 066°06'4 7.9
2017-Aug-12 09:00N 17°55' W 066°10'1 0.3
2017-Aug-12 05:43N 17°56' W 066°09'0 0.0
2017-Aug-12 05:29N 17°56' W 066°09'0 0.0
2017-Aug-12 05:00N 17°56' W 066°09'0 0.0
2017-Aug-12 03:57N 17°56' W 066°09'0 0.0
2017-Aug-12 03:30N 17°56' W 066°09'0 0.0
2017-Aug-12 03:00N 17°56' W 066°09'0 0.0
2017-Aug-12 02:29N 17°56' W 066°09'0 0.0
2017-Aug-12 02:00N 17°56' W 066°09'0 0.0
2017-Aug-12 01:23N 17°56' W 066°09'0 0.0
2017-Aug-12 01:00N 17°56' W 066°09'0 0.0
2017-Aug-12 00:30N 17°56' W 066°09'0 0.0
2017-Aug-12 00:00N 17°56' W 066°09'0 0.0
2017-Aug-11 23:30N 17°56' W 066°09'0 0.2
2017-Aug-11 22:59N 17°56' W 066°09'1 1.7
2017-Aug-11 22:28N 17°55' W 066°10'1 1.6
2017-Aug-11 22:00N 17°56' W 066°10'0 0.3
2017-Aug-11 21:30N 17°56' W 066°09'0 0.0
2017-Aug-11 21:00N 17°56' W 066°09'0 0.0
2017-Aug-11 20:30N 17°56' W 066°09'0 0.0
2017-Aug-11 20:00N 17°56' W 066°09'0 0.0
2017-Aug-11 19:30N 17°56' W 066°09'0 0.0
2017-Aug-11 19:00N 17°56' W 066°09'0 0.0
2017-Aug-11 18:30N 17°56' W 066°09'0 0.0
2017-Aug-11 18:00N 17°56' W 066°09'0 0.3
2017-Aug-11 17:30N 17°56' W 066°09'0 0.0
2017-Aug-11 17:00N 17°56' W 066°09'0 0.0
2017-Aug-11 16:30N 17°56' W 066°09'0 0.0
2017-Aug-11 16:00N 17°56' W 066°09'0 0.0
2017-Aug-11 15:29N 17°56' W 066°09'0 0.0
2017-Aug-11 15:00N 17°56' W 066°09'0 0.0
2017-Aug-11 14:01N 17°56' W 066°09'0 0.0
2017-Aug-11 13:30N 17°56' W 066°09'0 0.0
2017-Aug-11 13:00N 17°56' W 066°09'0 0.0
2017-Aug-11 12:30N 17°56' W 066°09'0 0.0
2017-Aug-11 12:00N 17°56' W 066°09'0 0.0
2017-Aug-11 11:30N 17°56' W 066°09'0 0.0
2017-Aug-11 11:00N 17°56' W 066°09'0 0.0
2017-Aug-11 10:11N 17°56' W 066°09'0 0.0
2017-Aug-11 08:37N 17°56' W 066°09'0 0.0
2017-Aug-11 08:28N 17°56' W 066°09'0 0.0
2017-Aug-11 07:50N 17°56' W 066°09'0 0.0
2017-Aug-11 07:30N 17°56' W 066°09'0 0.0
2017-Aug-11 06:48N 17°56' W 066°09'0 0.0
2017-Aug-11 06:30N 17°56' W 066°09'0 0.0
2017-Aug-11 05:34N 17°56' W 066°09'0 0.0
2017-Aug-11 05:29N 17°56' W 066°09'0 0.0
2017-Aug-11 05:00N 17°56' W 066°09'0 0.0
2017-Aug-11 04:30N 17°56' W 066°09'0 0.0
2017-Aug-11 03:51N 17°56' W 066°09'0 0.0
2017-Aug-11 03:29N 17°56' W 066°09'0 0.0
2017-Aug-11 03:00N 17°56' W 066°09'0 0.0
2017-Aug-11 02:30N 17°56' W 066°09'0 0.0
2017-Aug-11 02:00N 17°56' W 066°09'0 0.0
2017-Aug-11 01:30N 17°56' W 066°09'0 0.0
2017-Aug-11 01:00N 17°56' W 066°09'0 0.0
2017-Aug-11 00:29N 17°56' W 066°09'0 0.0
2017-Aug-11 00:01N 17°56' W 066°09'0 0.0
2017-Aug-10 23:30N 17°56' W 066°09'0 0.0
2017-Aug-10 23:00N 17°56' W 066°09'0 0.0
2017-Aug-10 22:20N 17°56' W 066°09'0 0.0
2017-Aug-10 21:58N 17°56' W 066°09'0 0.0
2017-Aug-10 21:30N 17°56' W 066°09'0 0.0
2017-Aug-10 21:00N 17°56' W 066°09'0 0.0
2017-Aug-10 20:30N 17°56' W 066°09'0 0.0
2017-Aug-10 20:00N 17°56' W 066°09'0 0.0
2017-Aug-10 19:30N 17°56' W 066°09'0 0.0
2017-Aug-10 19:00N 17°56' W 066°09'0 0.0
2017-Aug-10 18:30N 17°56' W 066°09'0 0.0
2017-Aug-10 18:00N 17°56' W 066°09'0 0.0
2017-Aug-10 17:30N 17°56' W 066°09'0 0.0
2017-Aug-10 17:00N 17°56' W 066°09'0 0.0
2017-Aug-10 16:30N 17°56' W 066°09'0 0.0
2017-Aug-10 16:00N 17°56' W 066°09'0 0.0
2017-Aug-10 15:30N 17°56' W 066°09'0 0.0
2017-Aug-10 15:00N 17°56' W 066°09'0 0.0
2017-Aug-10 14:31N 17°56' W 066°09'0 0.0
2017-Aug-10 14:00N 17°56' W 066°09'0 0.0
2017-Aug-10 13:30N 17°56' W 066°09'0 0.0
2017-Aug-10 13:00N 17°56' W 066°09'0 0.0
2017-Aug-10 12:29N 17°56' W 066°09'0 0.0
2017-Aug-10 12:00N 17°56' W 066°09'0 0.0
2017-Aug-10 11:31N 17°56' W 066°09'0 0.0
2017-Aug-10 11:00N 17°56' W 066°09'0 0.0
2017-Aug-10 10:30N 17°56' W 066°09'0 0.0
2017-Aug-10 09:59N 17°56' W 066°09'0 0.0
2017-Aug-10 09:30N 17°56' W 066°09'0 0.0
2017-Aug-10 09:00N 17°56' W 066°09'0 0.0
2017-Aug-10 08:29N 17°56' W 066°09'0 0.0
2017-Aug-10 08:00N 17°56' W 066°09'0 0.0
2017-Aug-10 07:30N 17°56' W 066°09'0 0.0
2017-Aug-10 07:00N 17°56' W 066°09'0 0.0
2017-Aug-10 06:30N 17°56' W 066°09'0 0.0
2017-Aug-10 06:00N 17°56' W 066°09'0 0.0
2017-Aug-10 05:30N 17°56' W 066°09'0 0.0
2017-Aug-10 05:00N 17°56' W 066°09'0 0.0
2017-Aug-10 04:30N 17°56' W 066°09'0 0.0
2017-Aug-10 04:00N 17°56' W 066°09'0 0.0
2017-Aug-10 03:31N 17°56' W 066°09'0 0.0
2017-Aug-10 03:00N 17°56' W 066°09'0 0.0
2017-Aug-10 02:30N 17°56' W 066°09'0 0.0
2017-Aug-10 02:00N 17°56' W 066°09'0 0.0
2017-Aug-10 01:30N 17°56' W 066°09'0 0.0
2017-Aug-10 01:00N 17°56' W 066°09'0 0.0
2017-Aug-10 00:30N 17°56' W 066°09'0 0.0
2017-Aug-10 00:00N 17°56' W 066°09'0 0.0
2017-Aug-09 23:30N 17°56' W 066°09'0 0.0
2017-Aug-09 23:00N 17°56' W 066°09'0 0.0
2017-Aug-09 22:30N 17°56' W 066°09'0 0.0
2017-Aug-09 22:00N 17°56' W 066°09'0 0.0
2017-Aug-09 21:30N 17°56' W 066°09'0 0.0
2017-Aug-09 21:00N 17°56' W 066°09'0 0.0
2017-Aug-09 20:30N 17°56' W 066°09'0 0.0
2017-Aug-09 20:00N 17°56' W 066°09'0 0.0
2017-Aug-09 19:30N 17°56' W 066°09'0 0.0
2017-Aug-09 18:59N 17°56' W 066°09'0 0.0
2017-Aug-09 18:30N 17°56' W 066°09'0 0.0
2017-Aug-09 18:00N 17°56' W 066°09'0 0.0
2017-Aug-09 17:30N 17°56' W 066°09'0 0.0
2017-Aug-09 17:00N 17°56' W 066°09'0 0.0
2017-Aug-09 16:30N 17°56' W 066°09'0 0.0
2017-Aug-09 16:00N 17°56' W 066°09'0 0.0
2017-Aug-09 15:30N 17°56' W 066°09'0 0.0
2017-Aug-09 15:00N 17°56' W 066°09'0 0.0
2017-Aug-09 14:30N 17°56' W 066°09'0 0.0
2017-Aug-09 14:00N 17°56' W 066°09'0 0.0
2017-Aug-09 13:30N 17°56' W 066°09'0 0.0
2017-Aug-09 12:59N 17°56' W 066°09'0 0.0
2017-Aug-09 12:30N 17°56' W 066°09'0 0.0
2017-Aug-09 12:00N 17°56' W 066°09'0 0.0
2017-Aug-09 11:30N 17°56' W 066°09'0 0.0
2017-Aug-09 11:00N 17°56' W 066°09'0 0.0
2017-Aug-09 10:30N 17°56' W 066°09'0 0.0
2017-Aug-09 10:00N 17°56' W 066°09'0 0.0
2017-Aug-09 09:30N 17°56' W 066°09'0 0.0
2017-Aug-09 09:00N 17°56' W 066°09'0 0.0
2017-Aug-09 08:30N 17°56' W 066°09'0 0.0
2017-Aug-09 08:00N 17°56' W 066°09'0 0.0
2017-Aug-09 07:30N 17°56' W 066°09'0 0.0
2017-Aug-09 07:00N 17°56' W 066°09'0 0.0
2017-Aug-09 06:30N 17°56' W 066°09'0 0.0
2017-Aug-09 06:00N 17°56' W 066°09'0 0.0
2017-Aug-09 05:30N 17°56' W 066°09'0 0.0
2017-Aug-09 05:00N 17°56' W 066°09'0 0.0
2017-Aug-09 04:31N 17°56' W 066°09'0 0.0
2017-Aug-09 04:00N 17°56' W 066°09'0 0.0
2017-Aug-09 03:30N 17°56' W 066°09'0 0.0
2017-Aug-09 03:00N 17°56' W 066°09'0 0.0
2017-Aug-09 02:30N 17°56' W 066°09'0 0.0
2017-Aug-09 02:00N 17°56' W 066°09'0 0.0
2017-Aug-09 01:30N 17°56' W 066°09'0 0.0
2017-Aug-09 01:01N 17°56' W 066°09'0 0.0
2017-Aug-09 00:30N 17°56' W 066°09'0 0.0
2017-Aug-09 00:00N 17°56' W 066°09'0 0.0
2017-Aug-08 23:30N 17°56' W 066°09'0 0.0
2017-Aug-08 23:00N 17°56' W 066°09'0 0.0
2017-Aug-08 22:30N 17°56' W 066°09'0 0.0
2017-Aug-08 22:00N 17°56' W 066°09'0 0.0
2017-Aug-08 21:30N 17°56' W 066°09'0 0.0
2017-Aug-08 21:00N 17°56' W 066°09'0 0.0
2017-Aug-08 20:30N 17°56' W 066°09'0 0.0
2017-Aug-08 20:00N 17°56' W 066°09'0 0.0
2017-Aug-08 19:30N 17°56' W 066°09'0 0.0
2017-Aug-08 19:00N 17°56' W 066°09'0 0.0
2017-Aug-08 18:28N 17°56' W 066°09'0 0.0
2017-Aug-08 18:00N 17°56' W 066°09'0 0.0
2017-Aug-08 17:29N 17°56' W 066°09'0 0.0
2017-Aug-08 17:00N 17°56' W 066°09'0 0.0
2017-Aug-08 16:30N 17°56' W 066°09'0 0.0
2017-Aug-08 16:00N 17°56' W 066°09'0 0.0
2017-Aug-08 15:28N 17°56' W 066°09'0 0.0
2017-Aug-08 15:00N 17°56' W 066°09'0 0.0
2017-Aug-08 14:29N 17°56' W 066°09'0 0.0
2017-Aug-08 14:00N 17°56' W 066°09'0 0.0
2017-Aug-08 13:30N 17°56' W 066°09'0 0.0
2017-Aug-08 13:00N 17°56' W 066°09'0 0.0
2017-Aug-08 12:28N 17°56' W 066°09'0 0.0
2017-Aug-08 11:59N 17°56' W 066°09'0 0.0
2017-Aug-08 11:28N 17°56' W 066°09'0 0.0
2017-Aug-08 11:00N 17°56' W 066°09'0 0.0
2017-Aug-08 10:30N 17°56' W 066°09'0 0.0
2017-Aug-08 09:59N 17°56' W 066°09'0 0.0
2017-Aug-08 09:30N 17°56' W 066°09'0 0.0
2017-Aug-08 09:00N 17°56' W 066°09'0 0.0
2017-Aug-08 08:30N 17°56' W 066°09'0 0.0
2017-Aug-08 08:00N 17°56' W 066°09'0 0.0
2017-Aug-08 07:30N 17°56' W 066°09'0 0.0
2017-Aug-08 07:00N 17°56' W 066°09'0 0.0
2017-Aug-08 06:31N 17°56' W 066°09'0 0.0
2017-Aug-08 06:00N 17°56' W 066°09'0 0.0
2017-Aug-08 05:29N 17°56' W 066°09'0 0.0
2017-Aug-08 05:00N 17°56' W 066°09'0 0.0
2017-Aug-08 04:30N 17°56' W 066°09'0 0.0
2017-Aug-08 04:00N 17°56' W 066°09'0 0.0
2017-Aug-08 03:29N 17°56' W 066°09'0 0.0
2017-Aug-08 03:00N 17°56' W 066°09'0 0.0
2017-Aug-08 02:30N 17°56' W 066°09'0 0.0
2017-Aug-08 02:00N 17°56' W 066°09'0 0.0
2017-Aug-08 01:30N 17°56' W 066°09'0 0.0
2017-Aug-08 01:00N 17°56' W 066°09'0 0.0
2017-Aug-08 00:30N 17°56' W 066°09'0 0.0
2017-Aug-08 00:00N 17°56' W 066°09'0 0.0
2017-Aug-07 23:30N 17°56' W 066°09'0 0.0
2017-Aug-07 23:00N 17°56' W 066°09'0 0.0
2017-Aug-07 22:30N 17°56' W 066°09'0 0.0
2017-Aug-07 22:00N 17°56' W 066°09'0 0.0
2017-Aug-07 21:30N 17°56' W 066°09'0 0.0
2017-Aug-07 21:00N 17°56' W 066°09'0 0.0
2017-Aug-07 20:30N 17°56' W 066°09'0 0.0
2017-Aug-07 20:00N 17°56' W 066°09'0 0.0
2017-Aug-07 19:30N 17°56' W 066°09'0 0.0
2017-Aug-07 19:00N 17°56' W 066°09'0 0.0
2017-Aug-07 18:30N 17°56' W 066°09'0 0.0
2017-Aug-07 18:00N 17°56' W 066°09'0 0.0
2017-Aug-07 17:31N 17°56' W 066°09'0 0.0
2017-Aug-07 17:01N 17°56' W 066°09'0 0.0
2017-Aug-07 16:30N 17°56' W 066°09'0 0.0
2017-Aug-07 16:00N 17°56' W 066°09'0 0.0
2017-Aug-07 15:31N 17°56' W 066°09'0 0.0
2017-Aug-07 15:00N 17°56' W 066°09'0 0.0
2017-Aug-07 14:30N 17°56' W 066°09'0 0.0
2017-Aug-07 14:00N 17°56' W 066°09'0 0.0
2017-Aug-07 13:30N 17°56' W 066°09'0 0.0
2017-Aug-07 13:00N 17°56' W 066°09'0 0.0
2017-Aug-07 12:30N 17°56' W 066°09'0 0.0
2017-Aug-07 12:00N 17°56' W 066°09'0 0.0
2017-Aug-07 11:30N 17°56' W 066°09'0 0.0
2017-Aug-07 11:00N 17°56' W 066°09'0 0.0
2017-Aug-07 10:30N 17°56' W 066°09'0 0.0
2017-Aug-07 10:00N 17°56' W 066°09'0 0.0
2017-Aug-07 09:30N 17°56' W 066°09'0 0.0
2017-Aug-07 09:00N 17°56' W 066°09'0 0.0
2017-Aug-07 08:30N 17°56' W 066°09'0 0.0
2017-Aug-07 08:01N 17°56' W 066°09'0 0.0
2017-Aug-07 07:30N 17°56' W 066°09'0 0.0
2017-Aug-07 07:00N 17°56' W 066°09'0 0.0
2017-Aug-07 06:30N 17°56' W 066°09'0 0.0
2017-Aug-07 06:00N 17°56' W 066°09'0 0.0
2017-Aug-07 05:30N 17°56' W 066°09'0 0.0
2017-Aug-07 05:00N 17°56' W 066°09'0 0.0
2017-Aug-07 04:30N 17°56' W 066°09'0 0.0
2017-Aug-07 04:00N 17°56' W 066°09'0 0.0
2017-Aug-07 03:30N 17°56' W 066°09'0 0.0
2017-Aug-07 03:00N 17°56' W 066°09'0 0.0
2017-Aug-07 02:30N 17°56' W 066°09'0 0.0
2017-Aug-07 02:00N 17°56' W 066°09'0 0.0
2017-Aug-07 01:30N 17°56' W 066°09'0 0.0
2017-Aug-07 01:00N 17°56' W 066°09'0 0.0
2017-Aug-07 00:30N 17°56' W 066°09'0 0.0
2017-Aug-07 00:00N 17°56' W 066°09'0 0.0
2017-Aug-06 23:30N 17°56' W 066°09'0 0.0
2017-Aug-06 23:00N 17°56' W 066°09'0 0.0
2017-Aug-06 22:30N 17°56' W 066°09'0 0.0
2017-Aug-06 22:00N 17°56' W 066°09'0 0.0
2017-Aug-06 21:30N 17°56' W 066°09'0 0.0
2017-Aug-06 21:01N 17°56' W 066°09'0 0.0
2017-Aug-06 20:31N 17°56' W 066°09'0 0.0
2017-Aug-06 20:00N 17°56' W 066°09'0 0.0
2017-Aug-06 19:30N 17°56' W 066°09'0 0.0
2017-Aug-06 19:00N 17°56' W 066°09'0 0.0
2017-Aug-06 18:31N 17°56' W 066°09'0 0.0
2017-Aug-06 18:00N 17°56' W 066°09'0 0.0
2017-Aug-06 17:30N 17°56' W 066°09'0 0.0
2017-Aug-06 17:00N 17°56' W 066°09'0 0.0
2017-Aug-06 16:30N 17°56' W 066°09'0 0.0
2017-Aug-06 16:00N 17°56' W 066°09'0 0.0
2017-Aug-06 15:30N 17°56' W 066°09'0 0.0
2017-Aug-06 15:00N 17°56' W 066°09'0 0.0
2017-Aug-06 14:30N 17°56' W 066°09'0 0.0
2017-Aug-06 14:01N 17°56' W 066°09'0 0.0
2017-Aug-06 13:30N 17°56' W 066°09'0 0.0
2017-Aug-06 13:00N 17°56' W 066°09'0 0.0
2017-Aug-06 12:31N 17°56' W 066°09'0 0.0
2017-Aug-06 12:00N 17°56' W 066°09'0 0.0
2017-Aug-06 11:30N 17°56' W 066°09'0 0.0
2017-Aug-06 11:00N 17°56' W 066°09'0 0.0
2017-Aug-06 10:31N 17°56' W 066°09'0 0.0
2017-Aug-06 10:00N 17°56' W 066°09'0 0.0
2017-Aug-06 09:30N 17°56' W 066°09'0 0.0
2017-Aug-06 09:00N 17°56' W 066°09'0 0.0
2017-Aug-06 08:30N 17°56' W 066°09'0 0.0
2017-Aug-06 08:00N 17°56' W 066°09'0 0.0
2017-Aug-06 07:30N 17°56' W 066°09'0 0.0
2017-Aug-06 07:00N 17°56' W 066°09'0 0.0
2017-Aug-06 06:30N 17°56' W 066°09'0 0.0
2017-Aug-06 06:01N 17°56' W 066°09'0 0.0
2017-Aug-06 05:30N 17°56' W 066°09'0 0.0
2017-Aug-06 05:00N 17°56' W 066°09'0 0.0
2017-Aug-06 04:30N 17°56' W 066°09'0 0.0
2017-Aug-06 04:00N 17°56' W 066°09'0 0.0
2017-Aug-06 03:30N 17°56' W 066°09'0 0.0
2017-Aug-06 03:00N 17°56' W 066°09'0 0.0
2017-Aug-06 02:30N 17°56' W 066°09'0 0.0
2017-Aug-06 02:00N 17°56' W 066°09'0 0.0
2017-Aug-06 01:30N 17°56' W 066°09'0 0.0
2017-Aug-06 01:00N 17°56' W 066°09'0 0.0
2017-Aug-06 00:30N 17°56' W 066°09'0 0.0
2017-Aug-06 00:00N 17°56' W 066°09'0 0.0
2017-Aug-05 23:30N 17°56' W 066°09'0 0.0
2017-Aug-05 23:00N 17°56' W 066°09'0 0.0
2017-Aug-05 22:30N 17°56' W 066°09'0 0.0
2017-Aug-05 21:59N 17°56' W 066°09'0 0.0
2017-Aug-05 21:30N 17°56' W 066°09'0 0.0
2017-Aug-05 21:00N 17°56' W 066°09'0 0.0
2017-Aug-05 20:31N 17°56' W 066°09'0 0.0
2017-Aug-05 20:00N 17°56' W 066°09'0 0.0
2017-Aug-05 19:30N 17°56' W 066°09'0 0.0
2017-Aug-05 19:00N 17°56' W 066°09'0 0.0
2017-Aug-05 18:30N 17°56' W 066°09'0 0.0
2017-Aug-05 18:00N 17°56' W 066°09'0 0.0
2017-Aug-05 17:30N 17°56' W 066°09'0 0.0
2017-Aug-05 17:00N 17°56' W 066°09'0 0.0
2017-Aug-05 16:30N 17°56' W 066°09'0 0.0
2017-Aug-05 16:00N 17°56' W 066°09'0 0.0
2017-Aug-05 15:30N 17°56' W 066°09'0 0.0
2017-Aug-05 15:00N 17°56' W 066°09'0 0.0
2017-Aug-05 14:30N 17°56' W 066°09'0 0.0
2017-Aug-05 14:00N 17°56' W 066°09'0 0.0
2017-Aug-05 13:30N 17°56' W 066°09'0 0.0
2017-Aug-05 13:00N 17°56' W 066°09'0 0.0
2017-Aug-05 12:30N 17°56' W 066°09'0 0.0
2017-Aug-05 12:00N 17°56' W 066°09'0 0.0
2017-Aug-05 11:30N 17°56' W 066°09'0 0.0
2017-Aug-05 11:00N 17°56' W 066°09'0 0.0
2017-Aug-05 10:30N 17°56' W 066°09'0 0.0
2017-Aug-05 10:00N 17°56' W 066°09'0 0.0
2017-Aug-05 09:30N 17°56' W 066°09'0 0.0
2017-Aug-05 09:00N 17°56' W 066°09'0 0.0
2017-Aug-05 08:31N 17°56' W 066°09'0 0.0
2017-Aug-05 08:00N 17°56' W 066°09'0 0.0
2017-Aug-05 07:30N 17°56' W 066°09'0 0.0
2017-Aug-05 07:00N 17°56' W 066°09'0 0.0
2017-Aug-05 06:30N 17°56' W 066°09'0 0.0
2017-Aug-05 06:00N 17°56' W 066°09'0 0.0
2017-Aug-05 05:30N 17°56' W 066°09'0 0.0
2017-Aug-05 05:00N 17°56' W 066°09'0 0.0
2017-Aug-05 04:30N 17°56' W 066°09'0 0.0
2017-Aug-05 04:00N 17°56' W 066°09'0 0.0
2017-Aug-05 03:30N 17°56' W 066°09'0 0.0
2017-Aug-05 03:00N 17°56' W 066°09'0 0.0
2017-Aug-05 02:30N 17°56' W 066°09'0 0.0
2017-Aug-05 02:00N 17°56' W 066°09'0 0.0
2017-Aug-05 01:29N 17°56' W 066°09'0 0.0
2017-Aug-05 01:00N 17°56' W 066°09'0 0.0
2017-Aug-05 00:30N 17°56' W 066°09'0 0.0
2017-Aug-05 00:00N 17°56' W 066°09'0 0.0
2017-Aug-04 23:30N 17°56' W 066°09'0 0.0
2017-Aug-04 23:00N 17°56' W 066°09'0 0.0
2017-Aug-04 22:30N 17°56' W 066°09'0 0.0
2017-Aug-04 22:00N 17°56' W 066°09'0 0.3
2017-Aug-04 21:30N 17°56' W 066°09'0 0.0
2017-Aug-04 21:01N 17°56' W 066°09'0 0.0
2017-Aug-04 20:30N 17°56' W 066°09'0 0.3
2017-Aug-04 20:00N 17°56' W 066°09'0 0.0
2017-Aug-04 19:30N 17°56' W 066°09'0 0.0
2017-Aug-04 19:00N 17°56' W 066°09'0 0.0
2017-Aug-04 18:30N 17°56' W 066°09'0 0.0
2017-Aug-04 18:00N 17°56' W 066°09'0 0.0
2017-Aug-04 17:30N 17°56' W 066°09'0 0.0
2017-Aug-04 17:00N 17°56' W 066°09'0 0.0
2017-Aug-04 16:30N 17°56' W 066°09'0 0.0
2017-Aug-04 15:59N 17°56' W 066°09'0 0.0
2017-Aug-04 15:24N 17°56' W 066°09'0 0.0
2017-Aug-04 15:00N 17°56' W 066°09'0 0.0
2017-Aug-04 13:58N 17°56' W 066°09'0 0.0
2017-Aug-04 13:30N 17°56' W 066°09'0 0.0
2017-Aug-04 12:58N 17°56' W 066°09'0 0.0
2017-Aug-04 12:30N 17°56' W 066°09'0 0.0
2017-Aug-04 12:00N 17°56' W 066°09'0 0.0
2017-Aug-04 11:29N 17°56' W 066°09'0 0.0
2017-Aug-04 11:00N 17°56' W 066°09'0 0.0
2017-Aug-04 10:30N 17°56' W 066°09'0 0.0
2017-Aug-04 10:00N 17°56' W 066°09'0 0.0
2017-Aug-04 09:31N 17°56' W 066°09'0 0.0
2017-Aug-04 09:00N 17°56' W 066°09'0 0.0
2017-Aug-04 08:30N 17°56' W 066°09'  

Dump ship's entire track history